createdAt,value
2019-03-21T00:00:52.805Z,4.60
2019-03-21T00:03:21.245Z,4.70
2019-03-21T00:05:49.568Z,4.70
2019-03-21T00:08:17.690Z,4.70
2019-03-21T00:11:19.349Z,4.60
2019-03-21T00:13:48.012Z,4.60
2019-03-21T00:16:16.247Z,4.70
2019-03-21T00:18:44.558Z,4.70
2019-03-21T00:21:12.593Z,4.70
2019-03-21T00:23:40.953Z,4.60
2019-03-21T00:26:09.385Z,4.60
2019-03-21T00:28:37.757Z,4.60
2019-03-21T00:31:24.442Z,4.60
2019-03-21T00:33:44.243Z,4.50
2019-03-21T00:36:12.521Z,4.50
2019-03-21T00:38:40.727Z,4.50
2019-03-21T00:41:08.999Z,4.50
2019-03-21T00:43:37.360Z,4.40
2019-03-21T00:46:05.444Z,4.40
2019-03-21T00:48:33.702Z,4.40
2019-03-21T00:51:02.100Z,4.40
2019-03-21T00:53:32.956Z,4.40
2019-03-21T00:56:01.011Z,4.30
2019-03-21T00:58:29.108Z,4.40
2019-03-21T01:00:57.586Z,4.40
2019-03-21T01:03:26.002Z,4.40
2019-03-21T01:05:54.312Z,4.30
2019-03-21T01:08:22.589Z,4.30
2019-03-21T01:10:50.965Z,4.20
2019-03-21T01:13:19.164Z,4.20
2019-03-21T01:15:47.624Z,4.20
2019-03-21T01:18:15.849Z,4.20
2019-03-21T01:20:44.254Z,4.20
2019-03-21T01:23:13.304Z,4.10
2019-03-21T01:25:47.523Z,4.10
2019-03-21T01:28:15.673Z,4.10
2019-03-21T01:30:44.012Z,4.00
2019-03-21T01:33:12.324Z,4.00
2019-03-21T01:35:41.298Z,3.90
2019-03-21T01:38:09.659Z,4.00
2019-03-21T01:40:38.639Z,4.00
2019-03-21T01:43:06.869Z,3.90
2019-03-21T01:45:35.073Z,3.80
2019-03-21T01:48:03.572Z,3.70
2019-03-21T01:50:32.183Z,3.70
2019-03-21T01:53:00.470Z,3.70
2019-03-21T01:55:29.210Z,3.70
2019-03-21T01:57:57.503Z,3.60
2019-03-21T02:00:28.341Z,3.60
2019-03-21T02:02:57.225Z,3.60
2019-03-21T02:05:25.511Z,3.60
2019-03-21T02:07:53.557Z,3.60
2019-03-21T02:10:21.804Z,3.60
2019-03-21T02:12:50.213Z,3.50
2019-03-21T02:15:18.491Z,3.50
2019-03-21T02:17:47.892Z,3.50
2019-03-21T02:20:16.566Z,3.60
2019-03-21T02:22:44.936Z,3.50
2019-03-21T02:25:16.095Z,3.40
2019-03-21T02:27:44.160Z,3.30
2019-03-21T02:30:15.520Z,3.30
2019-03-21T02:32:43.790Z,3.30
2019-03-21T02:35:12.706Z,3.30
2019-03-21T02:37:41.388Z,3.20
2019-03-21T02:40:14.742Z,3.20
2019-03-21T02:42:43.441Z,3.10
2019-03-21T02:45:13.081Z,3.20
2019-03-21T02:47:41.439Z,3.20
2019-03-21T02:50:12.997Z,3.30
2019-03-21T02:52:41.408Z,3.30
2019-03-21T02:55:09.986Z,3.30
2019-03-21T02:57:38.378Z,3.30
2019-03-21T03:00:09.926Z,3.30
2019-03-21T03:02:38.326Z,3.30
2019-03-21T03:05:08.331Z,3.20
2019-03-21T03:07:36.460Z,3.10
2019-03-21T03:10:06.771Z,3.10
2019-03-21T03:12:34.947Z,3.10
2019-03-21T03:15:03.414Z,3.10
2019-03-21T03:17:31.725Z,3.00
2019-03-21T03:20:00.572Z,3.00
2019-03-21T03:22:28.986Z,3.00
2019-03-21T03:24:57.277Z,3.00
2019-03-21T03:27:25.491Z,3.00
2019-03-21T03:29:53.594Z,2.80
2019-03-21T03:32:21.897Z,2.80
2019-03-21T03:34:50.529Z,2.70
2019-03-21T03:37:18.553Z,2.80
2019-03-21T03:39:47.425Z,2.70
2019-03-21T03:42:15.945Z,2.70
2019-03-21T03:44:44.323Z,2.70
2019-03-21T03:47:15.100Z,2.80
2019-03-21T03:49:43.672Z,2.80
2019-03-21T03:52:12.097Z,2.80
2019-03-21T03:54:40.492Z,2.80
2019-03-21T03:57:08.894Z,2.80
2019-03-21T03:59:37.552Z,2.80
2019-03-21T04:02:05.730Z,2.70
2019-03-21T04:04:34.345Z,2.60
2019-03-21T04:07:02.764Z,2.60
2019-03-21T04:09:31.313Z,2.60
2019-03-21T04:11:59.990Z,2.60
2019-03-21T04:14:28.371Z,2.50
2019-03-21T04:16:56.718Z,2.60
2019-03-21T04:19:25.066Z,2.50
2019-03-21T04:21:53.465Z,2.50
2019-03-21T04:24:21.698Z,2.50
2019-03-21T04:26:49.917Z,2.50
2019-03-21T04:29:18.176Z,2.50
2019-03-21T04:31:46.729Z,2.50
2019-03-21T04:34:14.877Z,2.50
2019-03-21T04:36:42.988Z,2.40
2019-03-21T04:39:11.129Z,2.30
2019-03-21T04:41:40.450Z,2.30
2019-03-21T04:44:08.680Z,2.40
2019-03-21T04:46:36.881Z,2.40
2019-03-21T04:49:05.205Z,2.40
2019-03-21T04:51:33.885Z,2.40
2019-03-21T04:54:02.360Z,2.40
2019-03-21T04:56:30.646Z,2.40
2019-03-21T04:58:59.023Z,2.40
2019-03-21T05:01:27.717Z,2.30
2019-03-21T05:03:56.013Z,2.30
2019-03-21T05:06:24.670Z,2.40
2019-03-21T05:08:53.158Z,2.40
2019-03-21T05:11:21.877Z,2.30
2019-03-21T05:13:50.294Z,2.20
2019-03-21T05:16:18.591Z,2.20
2019-03-21T05:18:47.504Z,2.20
2019-03-21T05:21:16.402Z,2.20
2019-03-21T05:23:45.211Z,2.20
2019-03-21T05:26:14.687Z,2.20
2019-03-21T05:28:48.882Z,2.20
2019-03-21T05:31:21.027Z,2.30
2019-03-21T05:33:51.338Z,2.20
2019-03-21T05:36:20.112Z,2.20
2019-03-21T05:38:51.094Z,2.20
2019-03-21T05:41:19.811Z,2.30
2019-03-21T05:43:51.576Z,2.30
2019-03-21T05:46:26.734Z,2.20
2019-03-21T05:48:50.558Z,2.20
2019-03-21T05:51:21.561Z,2.20
2019-03-21T05:53:50.124Z,2.20
2019-03-21T05:56:19.610Z,2.20
2019-03-21T05:58:51.422Z,2.30
2019-03-21T06:01:23.029Z,2.40
2019-03-21T06:03:56.555Z,2.60
2019-03-21T06:06:39.005Z,2.80
2019-03-21T06:09:08.448Z,2.80
2019-03-21T06:11:39.503Z,3.10
2019-03-21T06:14:08.058Z,3.30
2019-03-21T06:16:40.278Z,3.60
2019-03-21T06:19:21.814Z,3.90
2019-03-21T06:22:33.582Z,4.00
2019-03-21T06:25:24.852Z,4.10
2019-03-21T06:27:53.324Z,4.20
2019-03-21T06:30:21.845Z,4.30
2019-03-21T06:32:52.900Z,4.40
2019-03-21T06:35:22.200Z,4.70
2019-03-21T06:37:53.497Z,4.70
2019-03-21T06:40:44.249Z,4.90
2019-03-21T06:43:07.285Z,4.90
2019-03-21T06:45:47.824Z,5.10
2019-03-21T06:48:11.471Z,5.20
2019-03-21T06:50:39.665Z,5.30
2019-03-21T06:53:08.181Z,5.40
2019-03-21T06:55:36.340Z,5.40
2019-03-21T06:58:04.580Z,5.50
2019-03-21T07:00:33.145Z,5.60
2019-03-21T07:03:01.574Z,5.70
2019-03-21T07:05:29.957Z,5.80
2019-03-21T07:08:10.895Z,5.80
2019-03-21T07:10:41.537Z,5.90
2019-03-21T07:13:26.050Z,5.90
2019-03-21T07:16:34.982Z,6.10
2019-03-21T07:19:19.212Z,6.40
2019-03-21T07:22:26.188Z,6.60
2019-03-21T07:24:54.393Z,6.80
2019-03-21T07:27:23.171Z,6.90
2019-03-21T07:29:51.482Z,7.10
2019-03-21T07:32:19.712Z,7.10
2019-03-21T07:34:47.918Z,7.30
2019-03-21T07:37:17.106Z,6.90
2019-03-21T07:39:45.161Z,7.20
2019-03-21T07:42:13.365Z,7.50
2019-03-21T07:44:41.821Z,7.60
2019-03-21T07:47:13.237Z,7.70
2019-03-21T07:49:40.104Z,7.90
2019-03-21T07:52:10.384Z,8.00
2019-03-21T07:54:38.465Z,8.10
2019-03-21T07:57:06.616Z,8.40
2019-03-21T07:59:34.665Z,8.70
2019-03-21T08:02:03.190Z,9.10
2019-03-21T08:04:31.181Z,9.40
2019-03-21T08:06:59.245Z,9.70
2019-03-21T08:09:28.037Z,10.10
2019-03-21T08:11:58.238Z,10.40
2019-03-21T08:14:26.343Z,10.60
2019-03-21T08:16:57.262Z,10.80
2019-03-21T08:19:27.526Z,11.10
2019-03-21T08:21:55.629Z,10.70
2019-03-21T08:24:23.703Z,10.80
2019-03-21T08:26:51.852Z,10.50
2019-03-21T08:29:19.913Z,10.60
2019-03-21T08:31:47.991Z,11.00
2019-03-21T08:34:16.113Z,11.40
2019-03-21T08:36:44.281Z,11.70
2019-03-21T08:39:12.381Z,12.00
2019-03-21T08:41:40.477Z,12.30
2019-03-21T08:44:08.590Z,12.50
2019-03-21T08:46:37.110Z,12.60
2019-03-21T08:49:05.220Z,12.30
2019-03-21T08:51:33.305Z,12.20
2019-03-21T08:54:01.476Z,12.20
2019-03-21T08:56:30.781Z,12.60
2019-03-21T08:58:58.865Z,12.70
2019-03-21T09:01:27.521Z,12.50
2019-03-21T09:03:55.628Z,12.40
2019-03-21T09:06:29.301Z,12.30
2019-03-21T09:08:57.462Z,12.30
2019-03-21T09:11:28.314Z,12.10
2019-03-21T09:13:56.803Z,12.30
2019-03-21T09:16:24.990Z,12.30
2019-03-21T09:18:53.034Z,12.20
2019-03-21T09:21:24.168Z,12.30
2019-03-21T09:23:54.805Z,12.20
2019-03-21T09:26:25.188Z,12.30
2019-03-21T09:28:53.288Z,12.20
2019-03-21T09:31:21.661Z,12.00
2019-03-21T09:33:49.705Z,12.10
2019-03-21T09:36:17.739Z,12.20
2019-03-21T09:38:45.872Z,11.90
2019-03-21T09:41:14.161Z,12.00
2019-03-21T09:43:42.264Z,12.20
2019-03-21T09:46:10.290Z,12.20
2019-03-21T09:48:39.263Z,12.10
2019-03-21T09:51:07.289Z,12.20
2019-03-21T09:53:36.518Z,12.40
2019-03-21T09:56:05.064Z,12.50
2019-03-21T09:58:33.146Z,12.80
2019-03-21T10:01:01.214Z,13.10
2019-03-21T10:03:29.387Z,12.90
2019-03-21T10:05:57.758Z,12.90
2019-03-21T10:08:26.058Z,12.80
2019-03-21T10:10:54.223Z,12.80
2019-03-21T10:13:22.367Z,12.90
2019-03-21T10:15:50.461Z,13.00
2019-03-21T10:18:18.813Z,13.10
2019-03-21T10:20:46.841Z,13.20
2019-03-21T10:23:15.485Z,13.40
2019-03-21T10:25:43.983Z,13.60
2019-03-21T10:28:12.171Z,13.40
2019-03-21T10:30:41.194Z,13.40
2019-03-21T10:33:10.927Z,13.50
2019-03-21T10:35:39.082Z,13.30
2019-03-21T10:38:07.815Z,13.50
2019-03-21T10:40:36.208Z,13.50
2019-03-21T10:43:04.576Z,13.80
2019-03-21T10:45:32.797Z,14.00
2019-03-21T10:48:00.992Z,13.90
2019-03-21T10:50:33.816Z,13.90
2019-03-21T10:53:02.082Z,14.10
2019-03-21T10:55:30.079Z,14.10
2019-03-21T10:57:58.120Z,14.10
2019-03-21T11:00:26.323Z,14.20
2019-03-21T11:02:56.935Z,14.20
2019-03-21T11:05:25.035Z,14.20
2019-03-21T11:07:53.104Z,14.20
2019-03-21T11:10:21.221Z,14.10
2019-03-21T11:12:49.713Z,14.20
2019-03-21T11:15:17.804Z,14.30
2019-03-21T11:17:48.217Z,14.50
2019-03-21T11:20:26.627Z,14.20
2019-03-21T11:22:55.750Z,14.20
2019-03-21T11:25:23.931Z,14.30
2019-03-21T11:27:52.009Z,14.30
2019-03-21T11:30:29.608Z,14.30
2019-03-21T11:32:57.671Z,14.40
2019-03-21T11:35:25.841Z,14.50
2019-03-21T11:37:54.310Z,14.50
2019-03-21T11:40:23.589Z,14.60
2019-03-21T11:42:52.000Z,14.70
2019-03-21T11:45:20.116Z,14.60
2019-03-21T11:47:48.325Z,14.30
2019-03-21T11:50:16.713Z,14.40
2019-03-21T11:52:45.129Z,14.50
2019-03-21T11:55:13.894Z,14.50
2019-03-21T11:57:41.995Z,14.60
2019-03-21T12:00:10.291Z,14.70
2019-03-21T12:02:38.315Z,14.60
2019-03-21T12:05:09.453Z,14.70
2019-03-21T12:07:37.536Z,14.80
2019-03-21T12:10:07.433Z,14.80
2019-03-21T12:12:35.498Z,14.70
2019-03-21T12:15:04.120Z,14.70
2019-03-21T12:17:32.209Z,14.90
2019-03-21T12:20:00.446Z,15.10
2019-03-21T12:22:30.283Z,15.10
2019-03-21T12:24:58.705Z,15.20
2019-03-21T12:27:26.737Z,15.20
2019-03-21T12:29:55.045Z,15.20
2019-03-21T12:32:23.093Z,15.30
2019-03-21T12:34:51.165Z,15.40
2019-03-21T12:37:19.202Z,15.30
2019-03-21T12:39:47.338Z,15.20
2019-03-21T12:42:15.410Z,15.30
2019-03-21T12:44:43.498Z,15.40
2019-03-21T12:47:12.581Z,15.40
2019-03-21T12:49:41.377Z,15.40
2019-03-21T12:52:09.765Z,15.50
2019-03-21T12:54:37.874Z,15.50
2019-03-21T12:57:06.021Z,15.40
2019-03-21T12:59:34.097Z,15.40
2019-03-21T13:02:02.204Z,15.50
2019-03-21T13:04:30.603Z,15.60
2019-03-21T13:06:59.279Z,15.80
2019-03-21T13:09:27.332Z,15.90
2019-03-21T13:11:55.676Z,15.80
2019-03-21T13:14:26.825Z,15.90
2019-03-21T13:16:54.937Z,15.90
2019-03-21T13:19:23.020Z,16.00
2019-03-21T13:21:51.620Z,16.00
2019-03-21T13:24:20.471Z,16.00
2019-03-21T13:26:48.868Z,16.10
2019-03-21T13:29:17.178Z,16.00
2019-03-21T13:31:45.379Z,16.00
2019-03-21T13:34:13.579Z,16.20
2019-03-21T13:36:41.717Z,16.20
2019-03-21T13:39:10.013Z,16.00
2019-03-21T13:41:38.236Z,16.10
2019-03-21T13:44:06.527Z,16.30
2019-03-21T13:46:34.715Z,16.10
2019-03-21T13:49:05.796Z,16.10
2019-03-21T13:51:33.409Z,16.10
2019-03-21T13:54:01.610Z,16.20
2019-03-21T13:56:37.735Z,16.20
2019-03-21T13:58:59.587Z,16.20
2019-03-21T14:01:27.741Z,16.20
2019-03-21T14:03:55.785Z,16.20
2019-03-21T14:06:23.926Z,16.20
2019-03-21T14:08:52.073Z,16.10
2019-03-21T14:11:20.544Z,16.10
2019-03-21T14:13:48.605Z,16.20
2019-03-21T14:16:16.785Z,16.00
2019-03-21T14:18:45.390Z,16.00
2019-03-21T14:21:13.476Z,16.00
2019-03-21T14:23:43.506Z,16.10
2019-03-21T14:26:11.524Z,16.10
2019-03-21T14:28:39.660Z,16.00
2019-03-21T14:31:07.926Z,16.00
2019-03-21T14:33:36.221Z,16.10
2019-03-21T14:36:04.529Z,16.10
2019-03-21T14:38:32.833Z,16.00
2019-03-21T14:41:01.107Z,16.10
2019-03-21T14:43:29.160Z,16.20
2019-03-21T14:45:57.341Z,16.30
2019-03-21T14:48:25.777Z,16.20
2019-03-21T14:50:54.038Z,16.30
2019-03-21T14:53:28.857Z,16.40
2019-03-21T14:55:52.454Z,16.40
2019-03-21T14:58:20.569Z,16.40
2019-03-21T15:00:48.677Z,16.40
2019-03-21T15:07:21.624Z,16.30
2019-03-21T15:09:49.715Z,16.40
2019-03-21T15:12:17.827Z,16.40
2019-03-21T15:14:45.896Z,16.50
2019-03-21T15:17:14.049Z,16.50
2019-03-21T15:19:42.081Z,16.40
2019-03-21T15:22:10.146Z,16.50
2019-03-21T15:24:38.171Z,16.50
2019-03-21T15:27:06.282Z,16.50
2019-03-21T15:29:35.533Z,16.50
2019-03-21T15:32:03.660Z,16.50
2019-03-21T15:34:31.770Z,16.50
2019-03-21T15:37:00.014Z,16.50
2019-03-21T15:39:28.210Z,16.50
2019-03-21T15:41:56.307Z,16.50
2019-03-21T15:44:24.546Z,16.50
2019-03-21T15:46:52.660Z,16.50
2019-03-21T15:49:20.772Z,16.50
2019-03-21T15:51:48.849Z,16.60
2019-03-21T15:54:19.276Z,16.50
2019-03-21T15:56:47.399Z,16.40
2019-03-21T15:59:15.673Z,16.50
2019-03-21T16:01:44.141Z,16.40
2019-03-21T16:04:12.185Z,16.40
2019-03-21T16:06:40.217Z,16.40
2019-03-21T16:09:08.296Z,16.40
2019-03-21T16:11:36.736Z,16.40
2019-03-21T16:14:04.923Z,16.30
2019-03-21T16:16:32.972Z,16.30
2019-03-21T16:19:01.032Z,16.20
2019-03-21T16:21:29.104Z,16.20
2019-03-21T16:24:05.422Z,16.20
2019-03-21T16:26:31.298Z,16.20
2019-03-21T16:28:59.465Z,16.10
2019-03-21T16:31:27.554Z,16.20
2019-03-21T16:33:55.610Z,16.10
2019-03-21T16:36:23.722Z,16.10
2019-03-21T16:38:51.844Z,16.10
2019-03-21T16:41:20.043Z,16.10
2019-03-21T16:43:48.153Z,16.10
2019-03-21T16:46:16.200Z,16.10
2019-03-21T16:48:46.238Z,16.00
2019-03-21T16:51:15.449Z,15.90
2019-03-21T16:53:45.720Z,15.90
2019-03-21T16:56:14.994Z,15.70
2019-03-21T16:58:44.953Z,15.70
2019-03-21T17:01:15.733Z,15.70
2019-03-21T17:03:47.508Z,15.60
2019-03-21T17:06:16.961Z,15.60
2019-03-21T17:08:47.530Z,15.60
2019-03-21T17:11:15.686Z,15.60
2019-03-21T17:13:43.784Z,15.60
2019-03-21T17:16:11.829Z,15.50
2019-03-21T17:18:39.927Z,15.40
2019-03-21T17:21:09.514Z,15.40
2019-03-21T17:23:38.069Z,15.50
2019-03-21T17:26:06.408Z,15.40
2019-03-21T17:28:34.548Z,15.30
2019-03-21T17:31:02.921Z,15.30
2019-03-21T17:33:31.164Z,15.40
2019-03-21T17:36:01.731Z,15.30
2019-03-21T17:38:30.923Z,15.40
2019-03-21T17:40:59.254Z,15.40
2019-03-21T17:43:27.387Z,15.40
2019-03-21T17:45:55.567Z,15.40
2019-03-21T17:48:23.615Z,15.30
2019-03-21T17:50:52.105Z,15.30
2019-03-21T17:53:20.353Z,15.30
2019-03-21T17:55:50.082Z,15.30
2019-03-21T17:58:21.582Z,15.30
2019-03-21T18:00:53.165Z,15.20
2019-03-21T18:03:21.983Z,15.20
2019-03-21T18:05:50.252Z,15.20
2019-03-21T18:08:20.655Z,15.20
2019-03-21T18:10:48.870Z,15.00
2019-03-21T18:13:17.110Z,15.00
2019-03-21T18:15:45.284Z,14.90
2019-03-21T18:18:13.416Z,14.90
2019-03-21T18:20:41.484Z,14.80
2019-03-21T18:23:09.545Z,14.60
2019-03-21T18:25:37.563Z,14.60
2019-03-21T18:28:08.605Z,14.60
2019-03-21T18:30:36.074Z,14.50
2019-03-21T18:33:04.529Z,14.40
2019-03-21T18:35:32.613Z,14.30
2019-03-21T18:38:00.709Z,14.20
2019-03-21T18:40:29.245Z,14.20
2019-03-21T18:43:06.132Z,14.10
2019-03-21T18:45:34.362Z,14.00
2019-03-21T18:48:02.459Z,13.90
2019-03-21T18:50:30.692Z,13.90
2019-03-21T18:52:58.748Z,13.90
2019-03-21T18:55:29.505Z,13.80
2019-03-21T18:57:57.537Z,13.70
2019-03-21T19:00:25.607Z,13.50
2019-03-21T19:02:53.675Z,13.30
2019-03-21T19:05:21.979Z,13.20
2019-03-21T19:07:50.124Z,13.20
2019-03-21T19:10:18.421Z,13.10
2019-03-21T19:12:46.652Z,13.10
2019-03-21T19:15:16.105Z,13.00
2019-03-21T19:17:44.262Z,12.90
2019-03-21T19:20:15.003Z,12.80
2019-03-21T19:22:43.519Z,12.70
2019-03-21T19:25:18.363Z,12.60
2019-03-21T19:27:42.003Z,12.50
2019-03-21T19:30:10.282Z,12.40
2019-03-21T19:32:38.519Z,12.50
2019-03-21T19:35:06.860Z,12.50
2019-03-21T19:37:35.025Z,12.50
2019-03-21T19:40:04.080Z,12.30
2019-03-21T19:42:32.113Z,12.20
2019-03-21T19:45:00.852Z,12.20
2019-03-21T19:47:30.533Z,12.00
2019-03-21T19:49:58.777Z,12.00
2019-03-21T19:52:26.902Z,11.90
2019-03-21T19:54:54.973Z,11.70
2019-03-21T19:57:23.066Z,11.50
2019-03-21T19:59:51.088Z,11.40
2019-03-21T20:02:19.476Z,11.30
2019-03-21T20:04:55.654Z,11.30
2019-03-21T20:07:39.171Z,11.20
2019-03-21T20:10:07.751Z,11.20
2019-03-21T20:12:37.297Z,11.10
2019-03-21T20:15:07.012Z,11.00
2019-03-21T20:17:47.102Z,11.00
2019-03-21T20:20:16.712Z,10.90
2019-03-21T20:22:52.364Z,10.90
2019-03-21T20:25:22.153Z,10.90
2019-03-21T20:28:00.070Z,10.80
2019-03-21T20:30:29.593Z,10.70
2019-03-21T20:32:59.287Z,10.60
2019-03-21T20:35:28.401Z,10.40
2019-03-21T20:37:59.153Z,10.30
2019-03-21T20:40:39.751Z,10.30
2019-03-21T20:43:21.443Z,10.20
2019-03-21T20:45:55.742Z,10.10
2019-03-21T20:48:34.739Z,10.00
2019-03-21T20:51:21.600Z,10.00
2019-03-21T20:57:20.903Z,9.90
2019-03-21T21:00:01.791Z,9.90
2019-03-21T21:02:41.483Z,9.80
2019-03-21T21:05:09.946Z,9.60
2019-03-21T21:07:38.328Z,9.60
2019-03-21T21:10:06.811Z,9.50
2019-03-21T21:12:34.906Z,9.40
2019-03-21T21:15:04.869Z,9.30
2019-03-21T21:17:38.567Z,9.20
2019-03-21T21:20:07.581Z,9.10
2019-03-21T21:22:36.344Z,9.00
2019-03-21T21:25:05.805Z,9.00
2019-03-21T21:27:34.225Z,9.00
2019-03-21T21:30:05.586Z,8.90
2019-03-21T21:32:34.059Z,8.90
2019-03-21T21:35:02.153Z,8.80
2019-03-21T21:37:32.163Z,8.70
2019-03-21T21:40:00.382Z,8.70
2019-03-21T21:42:28.557Z,8.70
2019-03-21T21:44:56.827Z,8.60
2019-03-21T21:47:25.098Z,8.60
2019-03-21T21:49:53.121Z,8.60
2019-03-21T21:52:21.132Z,8.70
2019-03-21T21:57:25.262Z,8.40
2019-03-21T21:59:53.357Z,8.40
2019-03-21T22:02:23.268Z,8.30
2019-03-21T22:05:00.552Z,8.30
2019-03-21T22:07:31.408Z,8.30
2019-03-21T22:10:03.021Z,8.30
2019-03-21T22:12:35.490Z,8.30
2019-03-21T22:15:06.696Z,8.20
2019-03-21T22:17:37.379Z,8.20
2019-03-21T22:20:07.926Z,8.20
2019-03-21T22:22:36.451Z,8.00
2019-03-21T22:25:05.942Z,8.00
2019-03-21T22:27:34.107Z,8.00
2019-03-21T22:30:04.333Z,7.90
2019-03-21T22:32:32.352Z,7.80
2019-03-21T22:35:00.440Z,7.80
2019-03-21T22:37:28.697Z,7.80
2019-03-21T22:40:01.035Z,7.70
2019-03-21T22:42:29.234Z,7.60
2019-03-21T22:45:01.449Z,7.50
2019-03-21T22:47:29.537Z,7.40
2019-03-21T22:49:57.725Z,7.40
2019-03-21T22:52:25.894Z,7.40
2019-03-21T22:54:54.290Z,7.30
2019-03-21T22:57:23.444Z,7.20
2019-03-21T22:59:51.491Z,7.30
2019-03-21T23:02:19.580Z,7.20
2019-03-21T23:04:48.465Z,7.30
2019-03-21T23:07:16.885Z,7.20
2019-03-21T23:09:50.092Z,7.20
2019-03-21T23:12:18.472Z,7.10
2019-03-21T23:14:49.866Z,7.10
2019-03-21T23:17:21.008Z,7.10
2019-03-21T23:19:49.476Z,7.10
2019-03-21T23:22:18.667Z,7.00
2019-03-21T23:24:46.714Z,7.00
2019-03-21T23:27:28.680Z,7.00
2019-03-21T23:29:56.705Z,7.00
2019-03-21T23:32:24.888Z,6.90
2019-03-21T23:34:52.879Z,6.90
2019-03-21T23:37:21.189Z,6.90
2019-03-21T23:39:49.877Z,6.80
2019-03-21T23:42:17.884Z,6.80
2019-03-21T23:44:46.004Z,6.60
2019-03-21T23:47:14.377Z,6.70
2019-03-21T23:49:42.700Z,6.70
2019-03-21T23:52:10.957Z,6.60
2019-03-21T23:54:39.093Z,6.60
2019-03-21T23:57:07.180Z,6.60
2019-03-21T23:59:35.204Z,6.50
